»·PEaware :: N7375Q 49X-L52

N7375Q :: 49X-L52

FLIGHT INFORMATION

Flight Status: Arrived
Operator: Privately registered:
United States
More flights under this callsign
Pilot: Ion I. (24133)
Aircraft: SOCATA TBM-900
(TBM9)
More flights by this aircraft type
Origin: 49X Chemehuevi Valley
United States
Destination: L52 Oceano Co
United States
More flights between these airports :: More routes between these airports
Route: +ONLYY HELDE CROWY
File this flight plan on PilotEdge
Remarks:
Altitude:
(Current/Filed)
30,000ft
Speed:
(Current/Filed)
310kts
Departed: 31-Jul-20 06:31 PM
Arrived: 31-Jul-20 07:44 PM
Distance/Time
Traveled:
307nm/1:13
Distance/Time
To Go:
Arrived

Flight Plot

Page will automatically refresh every two minutes.

Flight plan parsing failed; only flown route is shown


Map Options




Map Legend


Flown Route
Filed Route
Departure Airport
Arrival Airport
Navaid (VOR, NDB)
Fix

Horizontal Profiles

Position Reports

Time Latitude Longitude Heading Altitude Ground
Speed
31-Jul-20 18:17 34.529322 -114.430438 269 621ft 0kts
31-Jul-20 18:18 34.529322 -114.430438 269 621ft 0kts
31-Jul-20 18:19 34.529322 -114.430438 269 621ft 0kts
31-Jul-20 18:20 34.529322 -114.430438 269 621ft 0kts
31-Jul-20 18:21 34.529322 -114.430438 269 621ft 0kts
31-Jul-20 18:22 34.529322 -114.430438 269 621ft 0kts
31-Jul-20 18:24 34.529322 -114.430438 269 621ft 0kts
31-Jul-20 18:25 34.529322 -114.430438 269 621ft 0kts
31-Jul-20 18:26 34.529322 -114.430438 269 621ft 0kts
31-Jul-20 18:27 34.529092 -114.430695 185 621ft 5kts
31-Jul-20 18:28 34.525599 -114.430949 179 622ft 21kts
31-Jul-20 18:29 34.522073 -114.431220 266 622ft 0kts
31-Jul-20 18:30 34.522067 -114.431364 267 623ft 4kts
31-Jul-20 18:31 34.538030 -114.431176 1 1000ft 117kts
31-Jul-20 18:32 34.568887 -114.438695 282 2953ft 116kts
31-Jul-20 18:33 34.559996 -114.475911 256 5245ft 117kts
31-Jul-20 18:34 34.551742 -114.515312 255 7414ft 130kts
31-Jul-20 18:35 34.542277 -114.559896 255 9485ft 142kts
31-Jul-20 18:36 34.532125 -114.607533 255 11499ft 154kts
31-Jul-20 18:37 34.520921 -114.659941 254 13550ft 167kts
31-Jul-20 18:38 34.509066 -114.715215 254 15560ft 171kts
31-Jul-20 18:39 34.497070 -114.771015 254 17560ft 175kts
31-Jul-20 18:40 34.484620 -114.828712 254 19569ft 179kts
31-Jul-20 18:40 34.474183 -114.877014 255 21217ft 177kts
31-Jul-20 18:42 34.459753 -114.943715 255 23039ft 192kts
31-Jul-20 18:43 34.462799 -115.007479 277 25051ft 193kts
31-Jul-20 18:43 34.468724 -115.060846 278 26697ft 192kts
31-Jul-20 18:44 34.475890 -115.125402 279 28704ft 196kts
31-Jul-20 18:45 34.483339 -115.192538 279 30131ft 225kts
31-Jul-20 18:46 34.492679 -115.277617 278 30125ft 274kts
31-Jul-20 18:47 34.503062 -115.372991 278 30110ft 292kts
31-Jul-20 18:48 34.513799 -115.472205 278 30105ft 299kts
31-Jul-20 18:49 34.524619 -115.572903 278 30103ft 301kts
31-Jul-20 18:50 34.533917 -115.660109 277 30104ft 301kts
31-Jul-20 18:51 34.543575 -115.751267 277 30105ft 302kts
31-Jul-20 18:52 34.554230 -115.852643 277 30105ft 302kts
31-Jul-20 18:53 34.564809 -115.954152 277 30121ft 302kts
31-Jul-20 18:54 34.575299 -116.055501 277 30206ft 300kts
31-Jul-20 18:55 34.585601 -116.156059 277 30290ft 299kts
31-Jul-20 18:56 34.595842 -116.256777 277 30188ft 304kts
31-Jul-20 18:57 34.606116 -116.358656 276 30174ft 303kts
31-Jul-20 18:58 34.616295 -116.460467 276 30159ft 303kts
31-Jul-20 18:59 34.626409 -116.562487 276 30142ft 303kts
31-Jul-20 19:00 34.635397 -116.653923 276 30130ft 303kts
31-Jul-20 19:01 34.645035 -116.752731 276 30133ft 303kts
31-Jul-20 19:02 34.654888 -116.854668 275 30133ft 304kts
31-Jul-20 19:03 34.664648 -116.956528 275 30161ft 303kts
31-Jul-20 19:04 34.674318 -117.058373 275 30207ft 302kts
31-Jul-20 19:05 34.683890 -117.160079 275 30241ft 302kts
31-Jul-20 19:06 34.693391 -117.261987 275 30241ft 303kts
31-Jul-20 19:07 34.702825 -117.364095 275 30241ft 304kts
31-Jul-20 19:08 34.713679 -117.466508 276 30240ft 304kts
31-Jul-20 19:09 34.724742 -117.568751 276 30240ft 304kts
31-Jul-20 19:10 34.735736 -117.671069 275 30232ft 304kts
31-Jul-20 19:11 34.746668 -117.773676 275 30212ft 304kts
31-Jul-20 19:12 34.757482 -117.875994 275 30200ft 304kts
31-Jul-20 19:13 34.768212 -117.978356 275 30212ft 303kts
31-Jul-20 19:14 34.778840 -118.080539 274 30224ft 303kts
31-Jul-20 19:15 34.789307 -118.182148 274 30226ft 302kts
31-Jul-20 19:16 34.799745 -118.284248 274 30229ft 302kts
31-Jul-20 19:17 34.810035 -118.385695 274 30251ft 301kts
31-Jul-20 19:18 34.820220 -118.487095 274 30296ft 300kts
31-Jul-20 19:19 34.830341 -118.588633 274 30036ft 310kts
31-Jul-20 19:20 34.841077 -118.697628 274 28082ft 335kts
31-Jul-20 19:21 34.852229 -118.811545 274 26100ft 341kts
31-Jul-20 19:22 34.863377 -118.926553 274 24285ft 334kts
31-Jul-20 19:23 34.873595 -119.032817 273 24168ft 303kts
31-Jul-20 19:24 34.883083 -119.132560 273 24149ft 291kts
31-Jul-20 19:25 34.892278 -119.230199 273 24114ft 289kts
31-Jul-20 19:26 34.901767 -119.332151 274 22212ft 324kts
31-Jul-20 19:27 34.911981 -119.442485 274 20208ft 322kts
31-Jul-20 19:28 34.925699 -119.539794 279 18349ft 315kts
31-Jul-20 19:29 34.943018 -119.643525 279 16375ft 310kts
31-Jul-20 19:30 34.959995 -119.745709 279 14384ft 304kts
31-Jul-20 19:31 34.976654 -119.846731 279 12382ft 301kts
31-Jul-20 19:32 34.992560 -119.943903 280 10379ft 285kts
31-Jul-20 19:33 35.007767 -120.037030 281 9057ft 262kts
31-Jul-20 19:34 35.021360 -120.120702 281 8977ft 243kts
31-Jul-20 19:35 35.034244 -120.200384 281 8928ft 240kts
31-Jul-20 19:36 35.048273 -120.287587 281 6957ft 264kts
31-Jul-20 19:37 35.061594 -120.370937 283 4928ft 232kts
31-Jul-20 19:38 35.070494 -120.441090 276 3982ft 187kts
31-Jul-20 19:39 35.067837 -120.507282 267 3357ft 209kts
31-Jul-20 19:40 35.068117 -120.565246 313 2285ft 124kts
31-Jul-20 19:41 35.084275 -120.590139 301 892ft 82kts
31-Jul-20 19:42 35.097356 -120.614324 302 253ft 89kts
31-Jul-20 19:43 35.103168 -120.625320 314 18ft 6kts
31-Jul-20 19:44 35.103378 -120.624457 27 18ft 0kts
31-Jul-20 19:45 35.103378 -120.624457 27 18ft 0kts
31-Jul-20 19:46 35.103378 -120.624457 27 18ft 0kts
31-Jul-20 19:47 35.103378 -120.624457 27 18ft 0kts
31-Jul-20 19:48 35.103378 -120.624457 27 18ft 0kts
31-Jul-20 19:49 35.103378 -120.624457 27 18ft 0kts

Navigation Log

Ident Type
Flight plan parsing failed, navigation log unavailable